ESUP

Pajala Airport

Sweden
METAR ESUP 220620Z AUTO 19007KT 9999 -RASN OVC005/// M00/M01 Q1010
Observed Flight Rules
Apr-22 @ 06:20 UTC (34 minutes ago) Instrument Flight Rules
Wind Visibility Clouds Conditions
190° at 7 knots 10,000+ meters
  • Overcast at 500' AGL
  • Light Rain
  • Light Snow
Temperatures Readings
Current 0°C / 32°F
Dewpoint -1°C / 30°F
Humidity 93%
Altimeter 29.82" Hg
Pressure 1010 hPa
Elevation 165
METAR ESUP 220620Z AUTO 19007KT 9999 -RASN OVC005/// M00/M01 Q1010
Observed Flight Rules
Apr-22 @ 06:20 UTC
(34 minutes ago)
IFR
Wind Visibility
190° at 7 knots 10,000+ meters
Clouds
  • Overcast at 500' AGL
Conditions
  • Light Rain
  • Light Snow
Temperature Dewpoint
0°C / 32°F -1°C / 30°F
Humidity Altimeter Pressure
93% 29.82" Hg 1010 hPa